This is the latest recevied weather packets stored in our database for station/object KD8OUK. If no packets are shown the sender has not sent any weather packets the latest 10 day(s).
| Time | Temp. | Humidity | Pressure | Rain* | Wind** | Luminosity | Snow |
|---|---|---|---|---|---|---|---|
| 1777492227 | 15.56° C | 83% | 1010.3 hPa | 0 mm | - | - | - |
| 1777491919 | 15° C | 86% | 1010.4 hPa | 0 mm | - | - | - |
| 1777491624 | 15° C | 85% | 1010.4 hPa | 0 mm | - | - | - |
| 1777491322 | 15° C | 84% | 1010.3 hPa | 0 mm | - | - | - |
| 1777491020 | - | - | 1010.3 hPa | 0 mm | - | - | - |
| 1777490719 | 15° C | 83% | 1010.3 hPa | 0 mm | - | - | - |
| 1777490416 | 15° C | 82% | 1010.3 hPa | 0 mm | - | - | - |
| 1777490127 | 15° C | 82% | 1010.3 hPa | 0 mm | - | - | - |
| 1777489819 | 15° C | 83% | 1010.2 hPa | 0 mm | - | - | - |
| 1777489528 | 15.56° C | 83% | 1010.2 hPa | 0 mm | - | - | - |
| 1777489221 | 15° C | 83% | 1010.2 hPa | 0 mm | - | - | - |
| 1777488931 | 15.56° C | 83% | 1010.2 hPa | 0 mm | - | - | - |
| 1777488623 | 15.56° C | 82% | 1010.1 hPa | 0 mm | - | - | - |
| 1777488333 | 15.56° C | 81% | 1010 hPa | 0 mm | - | - | - |
| 1777488025 | 16.11° C | 80% | 1010 hPa | 0 mm | - | - | - |
| 1777487717 | 15.56° C | 85% | 1010 hPa | 0 mm | - | - | - |
| 1777487427 | 15.56° C | 84% | 1010 hPa | 0 mm | - | - | - |
| 1777487120 | 15.56° C | 83% | 1010.1 hPa | 0 mm | - | - | - |
| 1777486829 | 16.11° C | 80% | 1010.2 hPa | 0 mm | - | - | - |
| 1777486521 | 16.11° C | 80% | 1010.2 hPa | 0 mm | - | - | - |
| 1777486232 | 16.67° C | 80% | 1010 hPa | 0 mm | - | - | - |
| 1777485924 | 15° C | 85% | 1010 hPa | 0 mm | - | - | - |
| 1777485616 | 15° C | 86% | 1010.3 hPa | 0 mm | - | - | - |
| 1777485326 | 15.56° C | 87% | 1010.3 hPa | 0 mm | - | - | - |
| 1777485018 | 14.44° C | 90% | 1010.3 hPa | 0 mm | - | - | - |
* Rain latest hour (hover to see other rain measurements)
** Current wind speed in m/s (hover to see current wind gust speed)